createdAt,value
2022-09-11T00:00:17.588Z,101890.16
2022-09-11T00:02:45.167Z,101877.88
2022-09-11T00:05:12.768Z,101881.34
2022-09-11T00:07:40.340Z,101884.06
2022-09-11T00:10:08.183Z,101886.97
2022-09-11T00:12:35.806Z,101883.59
2022-09-11T00:15:03.370Z,101884.63
2022-09-11T00:17:32.455Z,101889.78
2022-09-11T00:20:00.945Z,101877.50
2022-09-11T00:22:28.687Z,101885.28
2022-09-11T00:24:56.275Z,101884.25
2022-09-11T00:27:24.199Z,101877.41
2022-09-11T00:29:51.910Z,101883.50
2022-09-11T00:32:20.135Z,101874.97
2022-09-11T00:34:49.136Z,101874.09
2022-09-11T00:37:16.707Z,101875.06
2022-09-11T00:39:44.359Z,101872.53
2022-09-11T00:42:12.175Z,101878.72
2022-09-11T00:45:01.363Z,101879.53
2022-09-11T00:47:31.020Z,101877.00
2022-09-11T00:50:02.759Z,101873.66
2022-09-11T00:52:32.345Z,101867.56
2022-09-11T00:55:02.683Z,101877.00
2022-09-11T00:57:31.687Z,101866.50
2022-09-11T01:00:00.567Z,101875.34
2022-09-11T01:02:29.987Z,101872.81
2022-09-11T01:04:58.815Z,101865.78
2022-09-11T01:07:28.063Z,101871.75
2022-09-11T01:09:56.310Z,101868.22
2022-09-11T01:12:27.810Z,101866.50
2022-09-11T01:14:59.566Z,101865.69
2022-09-11T01:17:30.239Z,101869.41
2022-09-11T01:20:15.591Z,101863.53
2022-09-11T01:22:54.690Z,101859.94
2022-09-11T01:25:27.563Z,101862.66
2022-09-11T01:27:57.665Z,101864.66
2022-09-11T01:30:28.415Z,101864.75
2022-09-11T01:33:06.188Z,101856.03
2022-09-11T01:35:38.772Z,101865.66
2022-09-11T01:38:10.175Z,101860.50
2022-09-11T01:40:40.662Z,101865.84
2022-09-11T01:43:13.816Z,101867.47
2022-09-11T01:45:42.459Z,101864.09
2022-09-11T01:48:11.018Z,101865.75
2022-09-11T01:50:41.358Z,101861.47
2022-09-11T01:53:10.459Z,101859.78
2022-09-11T01:55:41.434Z,101860.59
2022-09-11T01:58:13.149Z,101861.47
2022-09-11T02:00:41.354Z,101861.56
2022-09-11T02:03:11.853Z,101865.94
2022-09-11T02:05:43.799Z,101856.22
2022-09-11T02:08:16.353Z,101863.13
2022-09-11T02:10:47.086Z,101853.69
2022-09-11T02:13:18.758Z,101855.53
2022-09-11T02:15:49.761Z,101860.69
2022-09-11T02:18:19.958Z,101851.06
2022-09-11T02:20:47.684Z,101846.06
2022-09-11T02:23:15.719Z,101848.69
2022-09-11T02:25:43.334Z,101847.84
2022-09-11T02:28:11.367Z,101851.31
2022-09-11T02:30:41.373Z,101837.16
2022-09-11T02:33:24.006Z,101838.88
2022-09-11T02:35:54.823Z,101838.88
2022-09-11T02:38:25.785Z,101841.50
2022-09-11T02:40:55.785Z,101839.16
2022-09-11T02:43:35.590Z,101833.03
2022-09-11T02:46:14.067Z,101839.16
2022-09-11T02:48:47.422Z,101837.44
2022-09-11T02:51:19.051Z,101832.97
2022-09-11T02:53:50.258Z,101841.97
2022-09-11T02:56:22.368Z,101844.69
2022-09-11T02:58:52.394Z,101840.44
2022-09-11T03:01:21.370Z,101844.00
2022-09-11T03:03:49.092Z,101852.91
2022-09-11T03:06:17.754Z,101845.13
2022-09-11T03:08:45.675Z,101841.84
2022-09-11T03:11:15.380Z,101837.53
2022-09-11T03:13:43.128Z,101845.31
2022-09-11T03:16:12.073Z,101844.28
2022-09-11T03:18:41.064Z,101842.50
2022-09-11T03:21:10.818Z,101841.84
2022-09-11T03:23:39.069Z,101836.59
2022-09-11T03:26:07.284Z,101837.63
2022-09-11T03:28:35.357Z,101844.75
2022-09-11T03:31:03.095Z,101838.09
2022-09-11T03:33:30.695Z,101838.09
2022-09-11T03:35:59.750Z,101846.69
2022-09-11T03:38:27.415Z,101843.16
2022-09-11T03:40:55.322Z,101835.66
2022-09-11T03:43:23.046Z,101844.44
2022-09-11T03:45:51.124Z,101842.66
2022-09-11T03:48:19.140Z,101842.66
2022-09-11T03:50:47.757Z,101840.13
2022-09-11T03:53:16.834Z,101835.75
2022-09-11T03:55:46.364Z,101834.97
2022-09-11T03:58:14.179Z,101845.47
2022-09-11T04:00:42.877Z,101839.41
2022-09-11T04:03:10.719Z,101841.06
2022-09-11T04:05:38.702Z,101845.47
2022-09-11T04:08:06.588Z,101843.78
2022-09-11T04:10:35.629Z,101842.25
2022-09-11T04:13:03.227Z,101843.06
2022-09-11T04:15:31.091Z,101842.13
2022-09-11T04:18:03.344Z,101839.50
2022-09-11T04:20:32.971Z,101842.13
2022-09-11T04:23:00.599Z,101844.81
2022-09-11T04:25:28.195Z,101837.69
2022-09-11T04:27:57.509Z,101837.69
2022-09-11T04:30:25.171Z,101843.78
2022-09-11T04:32:52.746Z,101843.78
2022-09-11T04:35:20.338Z,101840.31
2022-09-11T04:37:49.189Z,101834.06
2022-09-11T04:40:16.891Z,101842.75
2022-09-11T04:42:44.483Z,101833.94
2022-09-11T04:45:13.694Z,101837.31
2022-09-11T04:47:41.378Z,101836.38
2022-09-11T04:50:09.398Z,101833.75
2022-09-11T04:52:36.995Z,101831.91
2022-09-11T04:55:04.754Z,101834.44
2022-09-11T04:57:32.375Z,101837.06
2022-09-11T05:00:00.142Z,101838.00
2022-09-11T05:02:29.181Z,101837.13
2022-09-11T05:04:58.760Z,101836.97
2022-09-11T05:07:26.358Z,101841.94
2022-09-11T05:09:54.476Z,101845.22
2022-09-11T05:12:22.163Z,101842.50
2022-09-11T05:14:49.775Z,101844.28
2022-09-11T05:17:17.379Z,101840.63
2022-09-11T05:19:46.377Z,101842.25
2022-09-11T05:22:15.885Z,101834.19
2022-09-11T05:24:43.475Z,101846.06
2022-09-11T05:27:12.019Z,101846.84
2022-09-11T05:29:39.784Z,101844.13
2022-09-11T05:32:07.372Z,101852.72
2022-09-11T05:34:35.031Z,101854.44
2022-09-11T05:37:04.061Z,101860.41
2022-09-11T05:39:31.734Z,101849.00
2022-09-11T05:41:59.346Z,101850.59
2022-09-11T05:44:26.924Z,101845.88
2022-09-11T05:46:55.165Z,101843.91
2022-09-11T05:49:22.991Z,101848.13
2022-09-11T05:51:50.602Z,101847.13
2022-09-11T05:54:19.571Z,101853.97
2022-09-11T05:56:47.158Z,101850.19
2022-09-11T05:59:15.558Z,101856.22
2022-09-11T06:01:44.055Z,101849.91
2022-09-11T06:04:12.394Z,101855.06
2022-09-11T06:06:39.999Z,101858.53
2022-09-11T06:09:07.951Z,101853.19
2022-09-11T06:11:37.081Z,101852.91
2022-09-11T06:14:04.946Z,101849.16
2022-09-11T06:16:32.623Z,101848.84
2022-09-11T06:19:00.498Z,101851.28
2022-09-11T06:21:29.287Z,101851.19
2022-09-11T06:23:56.907Z,101850.19
2022-09-11T06:26:25.434Z,101851.66
2022-09-11T06:28:55.162Z,101860.94
2022-09-11T06:31:24.327Z,101865.91
2022-09-11T06:33:52.108Z,101868.34
2022-09-11T06:36:20.729Z,101867.28
2022-09-11T06:38:53.293Z,101871.25
2022-09-11T06:41:20.956Z,101865.69
2022-09-11T06:43:49.381Z,101869.03
2022-09-11T06:46:20.059Z,101872.44
2022-09-11T06:48:48.689Z,101868.66
2022-09-11T06:51:17.487Z,101871.22
2022-09-11T06:53:45.593Z,101871.00
2022-09-11T06:56:13.910Z,101869.16
2022-09-11T06:58:41.733Z,101875.16
2022-09-11T07:01:11.142Z,101870.53
2022-09-11T07:03:44.027Z,101882.53
2022-09-11T07:06:12.065Z,101883.19
2022-09-11T07:08:40.185Z,101882.88
2022-09-11T07:11:08.175Z,101880.91
2022-09-11T07:13:41.194Z,101872.81
2022-09-11T07:16:09.710Z,101876.91
2022-09-11T07:18:38.154Z,101869.69
2022-09-11T07:21:07.989Z,101876.31
2022-09-11T07:23:35.995Z,101883.16
2022-09-11T07:26:04.171Z,101879.50
2022-09-11T07:28:32.135Z,101874.84
2022-09-11T07:31:06.576Z,101872.88
2022-09-11T07:33:34.198Z,101872.78
2022-09-11T07:36:01.849Z,101877.84
2022-09-11T07:38:31.809Z,101873.94
2022-09-11T07:40:59.504Z,101882.28
2022-09-11T07:43:27.288Z,101877.53
2022-09-11T07:45:55.780Z,101874.47
2022-09-11T07:48:23.600Z,101882.06
2022-09-11T07:50:58.289Z,101880.84
2022-09-11T07:53:26.295Z,101876.94
2022-09-11T07:55:56.113Z,101873.97
2022-09-11T07:58:24.187Z,101878.19
2022-09-11T08:00:58.496Z,101873.56
2022-09-11T08:03:26.514Z,101877.66
2022-09-11T08:05:57.802Z,101874.81
2022-09-11T08:08:25.678Z,101867.44
2022-09-11T08:10:53.519Z,101872.63
2022-09-11T08:13:22.876Z,101868.06
2022-09-11T08:15:50.915Z,101876.63
2022-09-11T08:18:18.517Z,101868.53
2022-09-11T08:20:46.378Z,101870.72
2022-09-11T08:23:15.344Z,101871.88
2022-09-11T08:25:43.270Z,101873.22
2022-09-11T08:28:11.361Z,101874.59
2022-09-11T08:30:40.455Z,101879.66
2022-09-11T08:33:09.479Z,101877.84
2022-09-11T08:35:37.708Z,101874.06
2022-09-11T08:38:05.396Z,101875.41
2022-09-11T08:40:37.742Z,101881.31
2022-09-11T08:43:06.050Z,101882.78
2022-09-11T08:45:35.929Z,101876.22
2022-09-11T08:48:07.072Z,101878.28
2022-09-11T08:50:37.150Z,101883.34
2022-09-11T08:53:07.703Z,101880.50
2022-09-11T08:55:39.631Z,101881.84
2022-09-11T08:58:12.261Z,101880.78
2022-09-11T09:00:43.171Z,101874.66
2022-09-11T09:03:26.246Z,101873.38
2022-09-11T09:05:56.399Z,101875.78
2022-09-11T09:08:35.290Z,101876.53
2022-09-11T09:11:06.242Z,101873.53
2022-09-11T09:13:45.049Z,101872.97
2022-09-11T09:16:20.565Z,101873.59
2022-09-11T09:18:51.501Z,101871.56
2022-09-11T09:21:22.831Z,101874.63
2022-09-11T09:23:52.582Z,101877.28
2022-09-11T09:26:20.895Z,101872.00
2022-09-11T09:28:50.681Z,101874.63
2022-09-11T09:31:24.602Z,101876.94
2022-09-11T09:33:57.158Z,101871.31
2022-09-11T09:36:29.336Z,101863.06
2022-09-11T09:38:57.119Z,101856.91
2022-09-11T09:41:43.951Z,101854.03
2022-09-11T09:44:19.641Z,101857.31
2022-09-11T09:46:51.181Z,101859.72
2022-09-11T09:49:23.341Z,101858.88
2022-09-11T09:51:51.793Z,101859.72
2022-09-11T09:54:23.323Z,101855.13
2022-09-11T09:56:54.809Z,101860.31
2022-09-11T09:59:24.103Z,101852.38
2022-09-11T10:01:52.471Z,101854.09
2022-09-11T10:04:23.864Z,101854.69
2022-09-11T10:06:53.093Z,101855.41
2022-09-11T10:09:25.263Z,101852.78
2022-09-11T10:11:58.704Z,101856.97
2022-09-11T10:14:49.941Z,101842.22
2022-09-11T10:17:21.166Z,101842.22
2022-09-11T10:19:50.946Z,101840.66
2022-09-11T10:22:23.590Z,101844.84
2022-09-11T10:25:00.454Z,101843.75
2022-09-11T10:27:29.072Z,101835.59
2022-09-11T10:29:57.595Z,101831.06
2022-09-11T10:32:25.709Z,101825.91
2022-09-11T10:34:54.797Z,101839.84
2022-09-11T10:37:25.309Z,101836.22
2022-09-11T10:39:54.075Z,101836.34
2022-09-11T10:42:23.362Z,101829.50
2022-09-11T10:44:51.876Z,101832.84
2022-09-11T10:47:23.423Z,101836.22
2022-09-11T10:49:51.019Z,101823.13
2022-09-11T10:52:22.274Z,101829.38
2022-09-11T10:54:58.533Z,101829.38
2022-09-11T10:57:28.866Z,101825.03
2022-09-11T11:00:03.875Z,101827.56
2022-09-11T11:02:33.143Z,101827.81
2022-09-11T11:05:03.660Z,101825.16
2022-09-11T11:07:45.149Z,101821.31
2022-09-11T11:10:18.323Z,101823.59
2022-09-11T11:12:50.906Z,101825.28
2022-09-11T11:15:31.160Z,101824.34
2022-09-11T11:18:16.655Z,101820.72
2022-09-11T11:20:48.682Z,101818.81
2022-09-11T11:23:36.691Z,101820.63
2022-09-11T11:26:14.668Z,101816.28
2022-09-11T11:28:55.920Z,101820.00
2022-09-11T11:31:30.144Z,101819.41
2022-09-11T11:34:05.184Z,101807.25
2022-09-11T11:36:37.338Z,101810.13
2022-09-11T11:39:14.400Z,101809.31
2022-09-11T11:41:44.928Z,101808.47
2022-09-11T11:44:16.862Z,101804.16
2022-09-11T11:46:46.858Z,101810.97
2022-09-11T11:49:19.457Z,101814.34
2022-09-11T11:51:51.103Z,101807.13
2022-09-11T11:54:22.759Z,101805.72
2022-09-11T11:56:51.830Z,101806.56
2022-09-11T11:59:24.113Z,101805.03
2022-09-11T12:01:55.995Z,101806.47
2022-09-11T12:04:33.623Z,101807.78
2022-09-11T12:07:02.615Z,101812.34
2022-09-11T12:09:33.735Z,101803.44
2022-09-11T12:12:05.800Z,101799.00
2022-09-11T12:14:34.870Z,101801.78
2022-09-11T12:17:18.351Z,101802.38
2022-09-11T12:20:02.311Z,101799.97
2022-09-11T12:22:39.074Z,101796.84
2022-09-11T12:25:29.954Z,101792.41
2022-09-11T12:28:10.774Z,101788.66
2022-09-11T12:30:53.714Z,101781.22
2022-09-11T12:33:36.262Z,101782.41
2022-09-11T12:36:06.716Z,101785.19
2022-09-11T12:38:38.121Z,101782.78
2022-09-11T12:41:13.097Z,101782.41
2022-09-11T12:43:48.310Z,101783.13
2022-09-11T12:46:30.769Z,101777.47
2022-09-11T12:49:20.994Z,101772.31
2022-09-11T12:51:52.086Z,101781.06
2022-09-11T12:54:23.461Z,101775.31
2022-09-11T12:56:54.198Z,101777.22
2022-09-11T12:59:24.294Z,101780.47
2022-09-11T13:01:52.216Z,101770.50
2022-09-11T13:04:22.314Z,101769.41
2022-09-11T13:06:52.531Z,101767.00
2022-09-11T13:09:21.963Z,101768.78
2022-09-11T13:11:50.725Z,101768.78
2022-09-11T13:14:42.364Z,101764.72
2022-09-11T13:17:15.612Z,101762.88
2022-09-11T13:19:43.310Z,101765.41
2022-09-11T13:22:24.695Z,101753.88
2022-09-11T13:24:52.726Z,101752.84
2022-09-11T13:27:26.597Z,101753.94
2022-09-11T13:29:55.876Z,101748.78
2022-09-11T13:32:24.914Z,101744.47
2022-09-11T13:34:56.491Z,101744.72
2022-09-11T13:37:32.292Z,101741.94
2022-09-11T13:40:00.649Z,101740.97
2022-09-11T13:42:28.929Z,101736.53
2022-09-11T13:44:58.031Z,101733.28
2022-09-11T13:47:27.897Z,101729.44
2022-09-11T13:49:58.337Z,101733.25
2022-09-11T13:52:27.331Z,101725.88
2022-09-11T13:54:56.204Z,101725.22
2022-09-11T13:57:25.104Z,101720.16
2022-09-11T13:59:54.243Z,101727.31
2022-09-11T14:02:24.906Z,101732.50
2022-09-11T14:04:55.268Z,101727.91
2022-09-11T14:07:24.087Z,101725.97
2022-09-11T14:09:52.954Z,101724.16
2022-09-11T14:12:21.078Z,101722.22
2022-09-11T14:14:53.990Z,101716.69
2022-09-11T14:17:22.123Z,101721.16
2022-09-11T14:19:51.555Z,101717.31
2022-09-11T14:22:25.878Z,101722.94
2022-09-11T14:24:57.700Z,101725.19
2022-09-11T14:27:35.559Z,101716.84
2022-09-11T14:30:03.206Z,101725.84
2022-09-11T14:32:32.326Z,101717.75
2022-09-11T14:35:00.244Z,101722.66
2022-09-11T14:37:31.241Z,101723.22
2022-09-11T14:40:00.235Z,101720.44
2022-09-11T14:42:29.052Z,101715.44
2022-09-11T14:44:56.801Z,101715.19
2022-09-11T14:47:25.397Z,101711.56
2022-09-11T14:49:54.457Z,101715.88
2022-09-11T14:52:23.294Z,101713.81
2022-09-11T14:54:52.410Z,101709.91
2022-09-11T14:57:21.246Z,101711.72
2022-09-11T14:59:48.850Z,101714.25
2022-09-11T15:02:17.386Z,101713.00
2022-09-11T15:04:46.822Z,101711.59
2022-09-11T15:07:15.316Z,101710.66
2022-09-11T15:09:43.370Z,101714.44
2022-09-11T15:12:13.258Z,101713.22
2022-09-11T15:14:58.531Z,101717.94
2022-09-11T15:17:30.673Z,101715.03
2022-09-11T15:19:59.479Z,101718.66
2022-09-11T15:22:27.420Z,101718.78
2022-09-11T15:24:56.586Z,101721.31
2022-09-11T15:27:26.081Z,101722.00
2022-09-11T15:29:54.371Z,101711.78
2022-09-11T15:32:22.342Z,101719.34
2022-09-11T15:34:51.673Z,101716.94
2022-09-11T15:37:19.294Z,101713.84
2022-09-11T15:39:47.024Z,101716.78
2022-09-11T15:42:15.827Z,101713.84
2022-09-11T15:44:46.083Z,101719.56
2022-09-11T15:47:13.849Z,101717.56
2022-09-11T15:49:42.281Z,101720.88
2022-09-11T15:52:09.911Z,101722.94
2022-09-11T15:54:37.760Z,101714.72
2022-09-11T15:57:05.410Z,101721.50
2022-09-11T15:59:33.643Z,101721.47
2022-09-11T16:02:02.945Z,101705.72
2022-09-11T16:04:31.680Z,101705.09
2022-09-11T16:06:59.755Z,101712.97
2022-09-11T16:09:28.230Z,101714.94
2022-09-11T16:11:56.961Z,101718.22
2022-09-11T16:14:25.453Z,101716.34
2022-09-11T16:16:53.448Z,101710.59
2022-09-11T16:19:23.410Z,101708.47
2022-09-11T16:21:51.367Z,101713.28
2022-09-11T16:24:18.954Z,101720.78
2022-09-11T16:26:46.994Z,101716.72
2022-09-11T16:29:15.690Z,101719.59
2022-09-11T16:31:43.631Z,101711.19
2022-09-11T16:34:12.130Z,101719.50
2022-09-11T16:36:42.561Z,101713.63
2022-09-11T16:39:11.752Z,101718.59
2022-09-11T16:41:39.954Z,101711.16
2022-09-11T16:44:08.613Z,101717.59
2022-09-11T16:46:37.222Z,101717.84
2022-09-11T16:49:05.957Z,101716.31
2022-09-11T16:51:34.178Z,101718.50
2022-09-11T16:54:03.571Z,101720.53
2022-09-11T16:56:31.182Z,101724.53
2022-09-11T16:58:58.879Z,101722.00
2022-09-11T17:01:27.769Z,101724.03
2022-09-11T17:03:56.475Z,101720.91
2022-09-11T17:06:24.968Z,101718.66
2022-09-11T17:08:52.795Z,101725.25
2022-09-11T17:11:22.549Z,101727.91
2022-09-11T17:13:50.462Z,101729.34
2022-09-11T17:16:19.024Z,101722.16
2022-09-11T17:18:47.994Z,101732.63
2022-09-11T17:21:16.334Z,101730.69
2022-09-11T17:23:44.612Z,101728.50
2022-09-11T17:26:13.378Z,101728.88
2022-09-11T17:28:42.909Z,101731.13
2022-09-11T17:31:11.451Z,101726.03
2022-09-11T17:33:40.228Z,101723.75
2022-09-11T17:36:08.770Z,101731.91
2022-09-11T17:38:36.841Z,101725.66
2022-09-11T17:41:05.405Z,101720.72
2022-09-11T17:43:34.339Z,101728.75
2022-09-11T17:46:03.765Z,101729.09
2022-09-11T17:48:31.382Z,101731.34
2022-09-11T17:51:02.774Z,101730.88
2022-09-11T17:53:36.400Z,101729.44
2022-09-11T17:56:06.783Z,101730.59
2022-09-11T17:58:34.442Z,101729.16
2022-09-11T18:01:03.533Z,101728.53
2022-09-11T18:03:31.853Z,101729.59
2022-09-11T18:05:59.806Z,101726.44
2022-09-11T18:08:27.883Z,101720.47
2022-09-11T18:10:59.813Z,101720.34
2022-09-11T18:13:28.063Z,101728.38
2022-09-11T18:15:56.202Z,101723.34
2022-09-11T18:18:25.751Z,101726.91
2022-09-11T18:20:55.177Z,101727.13
2022-09-11T18:23:23.730Z,101730.72
2022-09-11T18:25:51.550Z,101736.34
2022-09-11T18:28:20.249Z,101738.47
2022-09-11T18:30:49.842Z,101740.50
2022-09-11T18:33:17.675Z,101740.72
2022-09-11T18:35:47.208Z,101753.25
2022-09-11T18:38:14.832Z,101748.53
2022-09-11T18:40:42.437Z,101748.75
2022-09-11T18:43:10.035Z,101758.81
2022-09-11T18:45:37.675Z,101758.59
2022-09-11T18:48:05.666Z,101758.38
2022-09-11T18:50:33.364Z,101755.47
2022-09-11T18:53:03.218Z,101762.56
2022-09-11T18:55:30.829Z,101758.75
2022-09-11T18:58:00.171Z,101765.50
2022-09-11T19:00:29.673Z,101765.50
2022-09-11T19:02:57.370Z,101759.47
2022-09-11T19:05:25.324Z,101759.47
2022-09-11T19:07:52.921Z,101761.19
2022-09-11T19:10:22.033Z,101757.69
2022-09-11T19:12:49.687Z,101762.53
2022-09-11T19:15:17.449Z,101764.66
2022-09-11T19:17:47.872Z,101773.69
2022-09-11T19:20:16.954Z,101764.34
2022-09-11T19:22:44.547Z,101765.41
2022-09-11T19:25:12.222Z,101768.97
2022-09-11T19:27:42.016Z,101761.19
2022-09-11T19:30:09.889Z,101760.13
2022-09-11T19:32:37.663Z,101761.81
2022-09-11T19:35:05.787Z,101764.84
2022-09-11T19:37:34.047Z,101758.97
2022-09-11T19:40:01.680Z,101761.06
2022-09-11T19:42:29.338Z,101760.31
2022-09-11T19:45:00.214Z,101762.22
2022-09-11T19:47:29.242Z,101765.06
2022-09-11T19:49:56.890Z,101758.09
2022-09-11T19:52:25.809Z,101758.50
2022-09-11T19:54:54.587Z,101760.53
2022-09-11T19:57:22.175Z,101759.88
2022-09-11T19:59:49.790Z,101756.59
2022-09-11T20:02:19.257Z,101760.28
2022-09-11T20:04:46.963Z,101765.03
2022-09-11T20:07:14.548Z,101755.59
2022-09-11T20:09:42.857Z,101765.69
2022-09-11T20:12:10.654Z,101766.81
2022-09-11T20:14:42.434Z,101759.53
2022-09-11T20:17:10.563Z,101757.41
2022-09-11T20:19:40.745Z,101759.59
2022-09-11T20:22:09.073Z,101762.53
2022-09-11T20:24:39.527Z,101755.78
2022-09-11T20:27:07.114Z,101759.53
2022-09-11T20:29:34.698Z,101767.31
2022-09-11T20:32:02.425Z,101765.94
2022-09-11T20:34:30.131Z,101765.06
2022-09-11T20:37:00.847Z,101766.13
2022-09-11T20:39:28.701Z,101772.34
2022-09-11T20:41:56.287Z,101768.94
2022-09-11T20:44:24.512Z,101775.25
2022-09-11T20:46:52.143Z,101763.13
2022-09-11T20:49:19.775Z,101768.28
2022-09-11T20:51:47.391Z,101761.34
2022-09-11T20:54:16.403Z,101757.44
2022-09-11T20:56:44.452Z,101758.16
2022-09-11T20:59:12.166Z,101755.13
2022-09-11T21:01:39.828Z,101764.28
2022-09-11T21:04:07.584Z,101763.75
2022-09-11T21:06:35.886Z,101764.03
2022-09-11T21:09:05.810Z,101755.50
2022-09-11T21:11:35.234Z,101758.31
2022-09-11T21:14:02.876Z,101761.31
2022-09-11T21:16:30.562Z,101759.84
2022-09-11T21:18:59.184Z,101748.75
2022-09-11T21:21:27.284Z,101752.63
2022-09-11T21:23:55.338Z,101754.22
2022-09-11T21:26:22.953Z,101751.13
2022-09-11T21:28:51.902Z,101746.00
2022-09-11T21:31:19.722Z,101739.38
2022-09-11T21:33:47.397Z,101746.56
2022-09-11T21:36:15.078Z,101743.94
2022-09-11T21:38:42.699Z,101741.59
2022-09-11T21:41:11.246Z,101747.03
2022-09-11T21:43:39.283Z,101738.44
2022-09-11T21:46:09.369Z,101739.06
2022-09-11T21:48:38.118Z,101744.22
2022-09-11T21:51:06.260Z,101739.84
2022-09-11T21:53:33.870Z,101738.88
2022-09-11T21:56:01.496Z,101740.78
2022-09-11T21:58:29.091Z,101742.72
2022-09-11T22:00:56.720Z,101746.56
2022-09-11T22:03:25.946Z,101742.44
2022-09-11T22:05:53.560Z,101742.59
2022-09-11T22:08:21.433Z,101741.03
2022-09-11T22:10:49.837Z,101743.06
2022-09-11T22:13:18.192Z,101745.84
2022-09-11T22:15:46.902Z,101747.66
2022-09-11T22:18:15.010Z,101748.69
2022-09-11T22:20:44.427Z,101746.25
2022-09-11T22:23:14.751Z,101742.94
2022-09-11T22:25:42.404Z,101739.56
2022-09-11T22:28:10.181Z,101747.44
2022-09-11T22:30:41.501Z,101745.84
2022-09-11T22:33:09.117Z,101745.00
2022-09-11T22:35:36.772Z,101744.91
2022-09-11T22:38:05.915Z,101739.56
2022-09-11T22:40:33.538Z,101738.94
2022-09-11T22:43:01.267Z,101742.47
2022-09-11T22:45:29.156Z,101737.13
2022-09-11T22:47:56.850Z,101735.44
2022-09-11T22:50:24.542Z,101736.47
2022-09-11T22:52:52.251Z,101735.63
2022-09-11T22:55:21.254Z,101736.47
2022-09-11T22:57:48.842Z,101739.84
2022-09-11T23:00:19.053Z,101738.06
2022-09-11T23:02:46.648Z,101734.41
2022-09-11T23:05:31.406Z,101730.13
2022-09-11T23:07:59.014Z,101730.13
2022-09-11T23:10:27.980Z,101730.22
2022-09-11T23:12:55.774Z,101726.81
2022-09-11T23:15:23.393Z,101730.38
2022-09-11T23:17:51.020Z,101731.25
2022-09-11T23:20:19.209Z,101725.06
2022-09-11T23:22:46.787Z,101733.78
2022-09-11T23:25:14.883Z,101730.38
2022-09-11T23:27:44.327Z,101722.69
2022-09-11T23:30:12.205Z,101729.63
2022-09-11T23:32:41.901Z,101728.78
2022-09-11T23:35:10.841Z,101723.47
2022-09-11T23:37:41.083Z,101728.63
2022-09-11T23:40:11.280Z,101726.72
2022-09-11T23:42:38.946Z,101735.34
2022-09-11T23:45:08.614Z,101736.31
2022-09-11T23:47:36.194Z,101732.66
2022-09-11T23:50:03.785Z,101735.19
2022-09-11T23:52:31.382Z,101728.09
2022-09-11T23:54:59.098Z,101730.53
2022-09-11T23:57:26.682Z,101730.34
2022-09-11T23:59:54.307Z,101726.09
